Aviation Digital Data Service (ADDS)

Output produced by TAFs form (2040 UTC 27 April 2017)
found at http://www.aviationweather.gov/adds/tafs/
 
METAR text: NSTU 271955Z VRB03KT 12SM FEW020 SCT040 BKN110 BKN220 29/28 A2985 RMK SLP110 T02920275
Conditions at: NSTU (PAGO PAGO , WS) observed 1955 UTC 27 April 2017
Temperature: 29.2°C (85°F)
Dewpoint: 27.5°C (82°F) [RH = 91%]
Pressure (altimeter): 29.85 inches Hg (1010.9 mb)
[Sea-level pressure: 1011.0 mb]
Winds: variable direction winds at 3 MPH (3 knots; 1.6 m/s)
Visibility: 12 miles (19 km)
Ceiling: 11000 feet AGL
Clouds: few clouds at 2000 feet AGL
scattered clouds at 4000 feet AGL
broken clouds at 11000 feet AGL
broken clouds at 22000 feet AGL
Weather: no significant weather observed at this time

Forecast for: NSTU (PAGO PAGO , WS)
Text: NSTU 271742Z 2718/2818 VRB06KT P6SM SCT020 SCT040 BKN200
Forecast period: 1800 UTC 27 April 2017 to 1800 UTC 28 April 2017
Forecast type: FROM: standard forecast or significant change
Winds: variable direction winds at 7 MPH (6 knots; 3.1 m/s)
Visibility: 6 or more miles (10+ km)
Ceiling: 20000 feet AGL
Clouds: scattered clouds at 2000 feet AGL
scattered clouds at 4000 feet AGL
broken clouds at 20000 feet AGL
Weather: no significant weather forecast for this period